Whitwell, Tennessee
Current Conditions -  °F | °C
As of 4:53 AM on Friday 31 Oct 2014 (Local Time) from KCHA Reporting Station
Broken Clouds Broken Clouds  
Wind Chill: 45°   Ceiling: 10000
Heat Index: 45°   Visibility: 7mi
Dew Point: 43°   Wind: 0mph
Humidity: 93%   Direction: NA
Pressure: 29.98"   Gusts: NA
Location:  35.2°N, 85.52°W
Report Text: KCHA 310953Z 00000KT 7SM BKN100 07/06 A2998 RMK AO2 SLP152 FIRST T00720061
Loading
Personal Weather Stations






























Interactive Weather Map New forecast layout! Learn more

10-Day Weather Forecast

Advertisements
Track Severe Weather on mobile